createdAt,value
2022-09-26T00:00:46.420Z,100351.19
2022-09-26T00:03:14.388Z,100352.19
2022-09-26T00:05:43.355Z,100347.72
2022-09-26T00:08:11.126Z,100337.00
2022-09-26T00:10:38.727Z,100339.34
2022-09-26T00:13:06.354Z,100328.59
2022-09-26T00:15:33.950Z,100319.78
2022-09-26T00:18:01.608Z,100313.50
2022-09-26T00:20:29.229Z,100305.28
2022-09-26T00:22:58.298Z,100306.13
2022-09-26T00:25:26.929Z,100298.84
2022-09-26T00:27:54.443Z,100293.53
2022-09-26T00:30:22.063Z,100291.63
2022-09-26T00:32:49.738Z,100281.00
2022-09-26T00:35:17.356Z,100274.72
2022-09-26T00:37:44.919Z,100266.75
2022-09-26T00:40:13.985Z,100268.28
2022-09-26T00:42:41.639Z,100261.16
2022-09-26T00:45:10.378Z,100262.97
2022-09-26T00:47:41.905Z,100260.19
2022-09-26T00:50:17.890Z,100255.56
2022-09-26T00:52:50.296Z,100254.75
2022-09-26T00:55:23.745Z,100251.94
2022-09-26T00:57:56.895Z,100250.13
2022-09-26T01:00:24.931Z,100249.13
2022-09-26T01:02:54.481Z,100242.72
2022-09-26T01:05:24.763Z,100243.56
2022-09-26T01:07:54.544Z,100238.09
2022-09-26T01:10:24.467Z,100230.16
2022-09-26T01:12:52.253Z,100235.19
2022-09-26T01:15:20.188Z,100226.09
2022-09-26T01:17:50.321Z,100217.00
2022-09-26T01:20:38.052Z,100217.00
2022-09-26T01:23:38.792Z,100208.75
2022-09-26T01:26:41.774Z,100213.78
2022-09-26T01:29:39.002Z,100199.41
2022-09-26T01:32:35.472Z,100202.47
2022-09-26T01:35:11.484Z,100185.41
2022-09-26T01:37:47.494Z,100193.09
2022-09-26T01:40:23.132Z,100185.81
2022-09-26T01:43:03.496Z,100179.09
2022-09-26T01:45:45.001Z,100182.41
2022-09-26T01:48:18.310Z,100175.00
2022-09-26T01:50:50.257Z,100174.72
2022-09-26T01:53:23.677Z,100175.44
2022-09-26T01:56:00.364Z,100168.13
2022-09-26T01:58:34.954Z,100169.81
2022-09-26T02:01:10.500Z,100159.06
2022-09-26T02:03:45.102Z,100162.41
2022-09-26T02:06:16.923Z,100156.09
2022-09-26T02:08:49.808Z,100146.47
2022-09-26T02:11:20.063Z,100147.97
2022-09-26T02:13:52.840Z,100138.19
2022-09-26T02:16:23.727Z,100140.56
2022-09-26T02:18:55.572Z,100135.09
2022-09-26T02:21:24.375Z,100132.28
2022-09-26T02:23:54.944Z,100121.53
2022-09-26T02:26:24.279Z,100116.91
2022-09-26T02:28:52.547Z,100108.63
2022-09-26T02:31:25.239Z,100105.81
2022-09-26T02:33:55.151Z,100098.53
2022-09-26T02:36:26.019Z,100101.91
2022-09-26T02:38:54.031Z,100095.44
2022-09-26T02:42:11.567Z,100086.31
2022-09-26T02:44:54.199Z,100085.34
2022-09-26T02:47:37.205Z,100079.88
2022-09-26T02:50:28.029Z,100073.56
2022-09-26T02:53:11.236Z,100071.59
2022-09-26T02:55:56.939Z,100074.25
2022-09-26T02:58:36.252Z,100060.00
2022-09-26T03:01:11.575Z,100047.56
2022-09-26T03:03:43.684Z,100050.22
2022-09-26T03:06:17.856Z,100041.25
2022-09-26T03:08:48.940Z,100037.59
2022-09-26T03:11:21.200Z,100034.78
2022-09-26T03:13:52.985Z,100035.59
2022-09-26T03:16:22.855Z,100032.81
2022-09-26T03:18:55.116Z,100037.16
2022-09-26T03:21:27.059Z,100030.72
2022-09-26T03:23:57.960Z,100025.41
2022-09-26T03:26:28.775Z,100026.22
2022-09-26T03:29:00.516Z,100012.78
2022-09-26T03:31:31.307Z,100000.19
2022-09-26T03:34:01.628Z,100000.19
2022-09-26T03:36:32.053Z,100000.03
2022-09-26T03:39:01.397Z,99992.59
2022-09-26T03:41:42.083Z,99985.44
2022-09-26T03:44:22.115Z,99977.47
2022-09-26T03:47:05.151Z,99978.16
2022-09-26T03:49:38.764Z,99973.50
2022-09-26T03:52:11.025Z,99971.53
2022-09-26T03:54:39.291Z,99966.06
2022-09-26T03:57:07.044Z,99957.09
2022-09-26T03:59:39.435Z,99954.31
2022-09-26T04:02:08.453Z,99943.50
2022-09-26T04:04:40.591Z,99950.47
2022-09-26T04:07:11.369Z,99942.19
2022-09-26T04:09:39.377Z,99938.41
2022-09-26T04:12:07.800Z,99927.91
2022-09-26T04:14:37.584Z,99932.06
2022-09-26T04:17:05.164Z,99926.75
2022-09-26T04:19:37.778Z,99922.94
2022-09-26T04:22:08.022Z,99926.47
2022-09-26T04:24:36.987Z,99918.31
2022-09-26T04:27:05.710Z,99914.50
2022-09-26T04:29:34.101Z,99904.56
2022-09-26T04:32:14.109Z,99897.41
2022-09-26T04:35:03.870Z,99893.91
2022-09-26T04:37:31.511Z,99894.59
2022-09-26T04:40:00.476Z,99884.78
2022-09-26T04:42:28.555Z,99884.78
2022-09-26T04:44:56.309Z,99881.28
2022-09-26T04:47:23.964Z,99868.81
2022-09-26T04:50:14.664Z,99872.97
2022-09-26T04:52:42.288Z,99873.97
2022-09-26T04:55:12.292Z,99865.50
2022-09-26T04:57:39.952Z,99863.50
2022-09-26T05:00:11.232Z,99861.66
2022-09-26T05:02:38.850Z,99860.00
2022-09-26T05:05:09.611Z,99855.69
2022-09-26T05:07:41.065Z,99851.19
2022-09-26T05:10:12.125Z,99849.38
2022-09-26T05:12:49.366Z,99845.88
2022-09-26T05:15:17.012Z,99846.88
2022-09-26T05:17:45.355Z,99843.22
2022-09-26T05:20:14.260Z,99835.41
2022-09-26T05:22:58.845Z,99836.06
2022-09-26T05:25:49.284Z,99837.72
2022-09-26T05:28:17.320Z,99828.91
2022-09-26T05:30:44.964Z,99827.91
2022-09-26T05:33:13.336Z,99827.91
2022-09-26T05:35:41.211Z,99826.09
2022-09-26T05:38:08.795Z,99823.13
2022-09-26T05:40:59.452Z,99824.78
2022-09-26T05:43:30.517Z,99811.66
2022-09-26T05:45:59.147Z,99815.16
2022-09-26T05:48:33.236Z,99807.66
2022-09-26T05:51:05.722Z,99811.00
2022-09-26T05:53:34.014Z,99813.50
2022-09-26T05:56:03.095Z,99810.53
2022-09-26T05:58:40.773Z,99809.53
2022-09-26T06:01:31.794Z,99810.88
2022-09-26T06:04:06.755Z,99801.91
2022-09-26T06:06:47.537Z,99803.56
2022-09-26T06:09:17.849Z,99800.56
2022-09-26T06:12:05.516Z,99800.41
2022-09-26T06:14:33.301Z,99797.44
2022-09-26T06:17:00.899Z,99789.16
2022-09-26T06:19:28.434Z,99789.81
2022-09-26T06:21:56.084Z,99788.81
2022-09-26T06:24:23.677Z,99781.66
2022-09-26T06:26:55.572Z,99779.03
2022-09-26T06:29:24.499Z,99774.03
2022-09-26T06:31:52.171Z,99776.19
2022-09-26T06:34:25.938Z,99764.22
2022-09-26T06:37:10.488Z,99757.22
2022-09-26T06:39:39.042Z,99753.91
2022-09-26T06:42:08.237Z,99753.25
2022-09-26T06:44:50.193Z,99751.09
2022-09-26T06:47:38.333Z,99745.44
2022-09-26T06:50:38.026Z,99742.09
2022-09-26T06:53:11.983Z,99742.44
2022-09-26T06:55:39.718Z,99734.47
2022-09-26T06:58:07.413Z,99732.44
2022-09-26T07:00:50.364Z,99724.16
2022-09-26T07:03:29.516Z,99720.16
2022-09-26T07:06:05.849Z,99707.97
2022-09-26T07:08:57.804Z,99702.97
2022-09-26T07:11:38.151Z,99697.97
2022-09-26T07:14:16.814Z,99697.66
2022-09-26T07:16:52.645Z,99697.13
2022-09-26T07:19:29.004Z,99690.84
2022-09-26T07:22:07.300Z,99691.63
2022-09-26T07:24:55.154Z,99679.50
2022-09-26T07:27:22.913Z,99679.31
2022-09-26T07:29:50.928Z,99691.44
2022-09-26T07:32:22.515Z,99675.81
2022-09-26T07:35:03.425Z,99685.47
2022-09-26T07:37:31.891Z,99685.16
2022-09-26T07:40:01.731Z,99677.47
2022-09-26T07:42:31.895Z,99664.84
2022-09-26T07:45:24.248Z,99672.00
2022-09-26T07:48:14.794Z,99674.47
2022-09-26T07:51:11.617Z,99663.00
2022-09-26T07:53:45.812Z,99660.81
2022-09-26T07:56:40.260Z,99650.66
2022-09-26T07:59:19.655Z,99657.31
2022-09-26T08:01:57.974Z,99656.44
2022-09-26T08:04:39.011Z,99662.97
2022-09-26T08:07:08.493Z,99651.94
2022-09-26T08:09:40.518Z,99655.25
2022-09-26T08:12:43.465Z,99647.94
2022-09-26T08:15:25.330Z,99647.22
2022-09-26T08:18:03.783Z,99646.22
2022-09-26T08:20:33.957Z,99643.06
2022-09-26T08:23:01.791Z,99641.06
2022-09-26T08:25:30.573Z,99635.34
2022-09-26T08:28:18.434Z,99641.22
2022-09-26T08:30:46.556Z,99642.69
2022-09-26T08:33:15.192Z,99635.81
2022-09-26T08:35:45.204Z,99631.69
2022-09-26T08:38:41.895Z,99631.31
2022-09-26T08:41:44.238Z,99632.00
2022-09-26T08:44:45.594Z,99626.59
2022-09-26T08:47:42.980Z,99627.94
2022-09-26T08:50:34.177Z,99625.78
2022-09-26T08:53:06.444Z,99619.31
2022-09-26T08:55:43.594Z,99619.94
2022-09-26T08:58:19.146Z,99628.25
2022-09-26T09:00:51.293Z,99617.28
2022-09-26T09:03:28.983Z,99615.44
2022-09-26T09:06:03.979Z,99620.06
2022-09-26T09:08:37.102Z,99619.59
2022-09-26T09:11:41.725Z,99616.44
2022-09-26T09:14:20.193Z,99616.56
2022-09-26T09:17:10.707Z,99620.75
2022-09-26T09:20:10.138Z,99617.91
2022-09-26T09:23:11.756Z,99617.25
2022-09-26T09:25:50.660Z,99619.91
2022-09-26T09:28:32.872Z,99606.56
2022-09-26T09:31:02.758Z,99606.22
2022-09-26T09:33:37.998Z,99601.00
2022-09-26T09:36:21.848Z,99604.56
2022-09-26T09:39:09.703Z,99596.25
2022-09-26T09:41:57.878Z,99599.59
2022-09-26T09:44:36.669Z,99598.09
2022-09-26T09:47:12.576Z,99596.44
2022-09-26T09:49:40.750Z,99593.41
2022-09-26T09:52:32.994Z,99576.81
2022-09-26T09:55:17.073Z,99576.50
2022-09-26T09:58:07.191Z,99580.66
2022-09-26T10:00:41.400Z,99570.88
2022-09-26T10:03:27.565Z,99572.06
2022-09-26T10:06:00.635Z,99566.22
2022-09-26T10:08:36.601Z,99554.09
2022-09-26T10:11:23.005Z,99552.41
2022-09-26T10:14:03.279Z,99542.56
2022-09-26T10:17:29.541Z,99544.91
2022-09-26T10:19:59.868Z,99536.78
2022-09-26T10:22:37.277Z,99532.78
2022-09-26T10:25:09.338Z,99518.44
2022-09-26T10:27:39.279Z,99517.09
2022-09-26T10:30:25.860Z,99513.72
2022-09-26T10:32:58.983Z,99503.25
2022-09-26T10:35:46.830Z,99490.38
2022-09-26T10:38:21.909Z,99474.38
2022-09-26T10:40:59.698Z,99472.38
2022-09-26T10:43:31.775Z,99476.00
2022-09-26T10:46:11.758Z,99462.38
2022-09-26T10:49:21.746Z,99451.34
2022-09-26T10:52:20.752Z,99453.88
2022-09-26T10:54:55.293Z,99451.16
2022-09-26T10:57:28.088Z,99459.69
2022-09-26T11:00:00.245Z,99459.06
2022-09-26T11:02:29.853Z,99450.97
2022-09-26T11:05:19.926Z,99461.72
2022-09-26T11:08:10.486Z,99462.38
2022-09-26T11:10:56.288Z,99466.03
2022-09-26T11:13:48.027Z,99448.00
2022-09-26T11:16:19.980Z,99452.72
2022-09-26T11:19:02.495Z,99445.06
2022-09-26T11:21:37.203Z,99449.41
2022-09-26T11:24:14.762Z,99442.69
2022-09-26T11:26:53.312Z,99444.06
2022-09-26T11:29:30.854Z,99444.91
2022-09-26T11:32:05.749Z,99435.22
2022-09-26T11:35:10.016Z,99438.06
2022-09-26T11:37:55.087Z,99431.91
2022-09-26T11:40:39.089Z,99422.38
2022-09-26T11:43:19.624Z,99413.97
2022-09-26T11:46:09.425Z,99412.78
2022-09-26T11:49:15.289Z,99399.47
2022-09-26T11:52:15.208Z,99388.78
2022-09-26T11:55:01.745Z,99385.75
2022-09-26T11:57:38.188Z,99368.41
2022-09-26T12:00:12.869Z,99367.88
2022-09-26T12:02:55.974Z,99364.47
2022-09-26T12:05:32.894Z,99359.97
2022-09-26T12:08:16.084Z,99363.91
2022-09-26T12:10:56.564Z,99353.22
2022-09-26T12:13:35.210Z,99348.19
2022-09-26T12:16:12.741Z,99347.09
2022-09-26T12:18:52.182Z,99345.16
2022-09-26T12:21:32.128Z,99337.44
2022-09-26T12:24:08.837Z,99335.88
2022-09-26T12:26:46.445Z,99330.00
2022-09-26T12:29:31.483Z,99335.84
2022-09-26T12:32:18.696Z,99321.53
2022-09-26T12:35:03.479Z,99314.97
2022-09-26T12:37:52.695Z,99319.13
2022-09-26T12:40:36.097Z,99321.41
2022-09-26T12:43:40.815Z,99310.19
2022-09-26T12:46:37.869Z,99310.59
2022-09-26T12:49:22.415Z,99317.03
2022-09-26T12:51:54.993Z,99305.66
2022-09-26T12:54:50.629Z,99290.81
2022-09-26T12:57:30.699Z,99295.34
2022-09-26T13:00:13.064Z,99295.34
2022-09-26T13:03:11.148Z,99287.81
2022-09-26T13:05:57.083Z,99291.03
2022-09-26T13:08:36.693Z,99297.19
2022-09-26T13:11:19.567Z,99286.34
2022-09-26T13:14:14.763Z,99284.09
2022-09-26T13:17:00.395Z,99283.22
2022-09-26T13:19:34.926Z,99278.50
2022-09-26T13:22:06.177Z,99270.22
2022-09-26T13:24:41.440Z,99270.88
2022-09-26T13:27:16.060Z,99270.63
2022-09-26T13:29:51.736Z,99276.31
2022-09-26T13:32:25.426Z,99277.53
2022-09-26T13:34:59.436Z,99269.06
2022-09-26T13:37:42.749Z,99266.38
2022-09-26T13:40:25.439Z,99260.88
2022-09-26T13:43:05.925Z,99257.00
2022-09-26T13:45:50.541Z,99265.19
2022-09-26T13:48:27.380Z,99257.19
2022-09-26T13:51:01.183Z,99249.25
2022-09-26T13:53:35.812Z,99251.31
2022-09-26T13:56:30.260Z,99236.53
2022-09-26T13:59:05.372Z,99236.75
2022-09-26T14:01:34.679Z,99234.44
2022-09-26T14:04:19.564Z,99228.16
2022-09-26T14:07:28.098Z,99225.88
2022-09-26T14:10:04.957Z,99217.69
2022-09-26T14:12:35.361Z,99218.50
2022-09-26T14:15:24.036Z,99215.09
2022-09-26T14:18:18.895Z,99207.97
2022-09-26T14:20:56.963Z,99208.59
2022-09-26T14:23:36.203Z,99206.19
2022-09-26T14:26:12.410Z,99192.63
2022-09-26T14:28:41.374Z,99193.47
2022-09-26T14:31:17.423Z,99183.25
2022-09-26T14:33:47.116Z,99183.06
2022-09-26T14:36:28.732Z,99181.38
2022-09-26T14:38:56.644Z,99179.13
2022-09-26T14:41:28.548Z,99177.72
2022-09-26T14:44:00.029Z,99184.72
2022-09-26T14:46:32.761Z,99176.06
2022-09-26T14:49:05.231Z,99178.09
2022-09-26T14:51:35.362Z,99170.25
2022-09-26T14:54:06.688Z,99177.22
2022-09-26T14:56:42.752Z,99174.28
2022-09-26T14:59:40.120Z,99168.94
2022-09-26T15:02:28.005Z,99167.03
2022-09-26T15:05:05.314Z,99158.22
2022-09-26T15:07:42.008Z,99159.13
2022-09-26T15:10:22.174Z,99162.38
2022-09-26T15:12:57.922Z,99148.41
2022-09-26T15:15:38.696Z,99154.13
2022-09-26T15:18:09.911Z,99145.84
2022-09-26T15:20:46.677Z,99143.38
2022-09-26T15:23:25.236Z,99141.28
2022-09-26T15:25:55.387Z,99135.13
2022-09-26T15:28:24.699Z,99124.19
2022-09-26T15:31:24.875Z,99124.00
2022-09-26T15:33:59.479Z,99128.44
2022-09-26T15:36:31.242Z,99118.19
2022-09-26T15:38:59.280Z,99117.13
2022-09-26T15:41:44.576Z,99110.31
2022-09-26T15:44:20.334Z,99105.81
2022-09-26T15:46:50.517Z,99101.63
2022-09-26T15:49:22.345Z,99098.56
2022-09-26T15:51:54.199Z,99087.25
2022-09-26T15:54:27.464Z,99096.03
2022-09-26T15:56:58.837Z,99088.22
2022-09-26T15:59:32.118Z,99084.25
2022-09-26T16:02:01.228Z,99092.69
2022-09-26T16:04:30.139Z,99089.22
2022-09-26T16:07:01.897Z,99091.19
2022-09-26T16:09:33.151Z,99085.66
2022-09-26T16:12:03.148Z,99088.50
2022-09-26T16:14:37.671Z,99074.72
2022-09-26T16:17:21.407Z,99074.72
2022-09-26T16:19:52.030Z,99068.75
2022-09-26T16:22:40.731Z,99069.13
2022-09-26T16:25:34.403Z,99071.41
2022-09-26T16:28:18.965Z,99072.44
2022-09-26T16:30:59.814Z,99070.31
2022-09-26T16:33:30.778Z,99077.69
2022-09-26T16:36:05.865Z,99069.69
2022-09-26T16:38:36.404Z,99067.47
2022-09-26T16:41:08.867Z,99064.72
2022-09-26T16:43:38.951Z,99057.13
2022-09-26T16:46:09.688Z,99062.25
2022-09-26T16:48:39.975Z,99055.72
2022-09-26T16:51:15.868Z,99056.94
2022-09-26T16:53:46.582Z,99043.69
2022-09-26T16:56:19.032Z,99044.91
2022-09-26T16:58:50.875Z,99041.59
2022-09-26T17:01:36.931Z,99047.56
2022-09-26T17:04:05.435Z,99043.06
2022-09-26T17:06:35.045Z,99039.38
2022-09-26T17:09:14.552Z,99030.94
2022-09-26T17:11:42.577Z,99037.94
2022-09-26T17:14:16.289Z,99032.41
2022-09-26T17:16:46.795Z,99034.44
2022-09-26T17:19:17.530Z,99037.09
2022-09-26T17:21:46.326Z,99033.78
2022-09-26T17:24:17.879Z,99028.63
2022-09-26T17:26:53.176Z,99023.97
2022-09-26T17:29:24.951Z,99019.56
2022-09-26T17:31:54.679Z,99016.06
2022-09-26T17:34:23.076Z,99018.72
2022-09-26T17:36:51.751Z,99014.63
2022-09-26T17:39:25.620Z,99004.78
2022-09-26T17:41:54.675Z,99012.31
2022-09-26T17:44:22.286Z,99000.19
2022-09-26T17:46:53.907Z,99005.69
2022-09-26T17:49:26.645Z,98997.34
2022-09-26T17:51:56.180Z,98990.53
2022-09-26T17:54:30.509Z,98998.34
2022-09-26T17:56:59.080Z,99003.19
2022-09-26T17:59:28.545Z,98990.88
2022-09-26T18:02:00.904Z,98990.69
2022-09-26T18:04:29.932Z,98992.91
2022-09-26T18:07:04.260Z,98984.47
2022-09-26T18:09:36.076Z,98988.16
2022-09-26T18:12:05.246Z,98982.00
2022-09-26T18:14:34.811Z,98983.19
2022-09-26T18:17:03.223Z,98979.88
2022-09-26T18:19:31.587Z,98982.34
2022-09-26T18:21:59.644Z,98976.19
2022-09-26T18:24:30.224Z,98962.06
2022-09-26T18:27:03.768Z,98967.94
2022-09-26T18:29:35.657Z,98960.97
2022-09-26T18:32:04.893Z,98958.31
2022-09-26T18:34:32.739Z,98952.81
2022-09-26T18:37:01.665Z,98953.38
2022-09-26T18:39:30.381Z,98944.72
2022-09-26T18:42:03.699Z,98946.56
2022-09-26T18:44:33.193Z,98957.22
2022-09-26T18:47:02.132Z,98952.91
2022-09-26T18:49:33.439Z,98952.06
2022-09-26T18:52:01.537Z,98952.28
2022-09-26T18:54:31.064Z,98941.16
2022-09-26T18:57:17.500Z,98936.66
2022-09-26T18:59:45.445Z,98937.66
2022-09-26T19:02:21.820Z,98933.56
2022-09-26T19:04:50.147Z,98937.03
2022-09-26T19:07:21.664Z,98932.53
2022-09-26T19:09:50.510Z,98925.94
2022-09-26T19:12:19.528Z,98921.41
2022-09-26T19:14:47.100Z,98921.63
2022-09-26T19:17:14.804Z,98921.63
2022-09-26T19:19:42.437Z,98917.31
2022-09-26T19:22:15.540Z,98920.97
2022-09-26T19:24:48.284Z,98911.72
2022-09-26T19:27:21.225Z,98919.69
2022-09-26T19:29:53.218Z,98917.38
2022-09-26T19:32:22.154Z,98911.91
2022-09-26T19:34:53.654Z,98912.25
2022-09-26T19:37:21.284Z,98907.59
2022-09-26T19:39:50.051Z,98904.94
2022-09-26T19:42:19.030Z,98904.94
2022-09-26T19:44:46.667Z,98903.09
2022-09-26T19:47:17.201Z,98902.44
2022-09-26T19:49:47.220Z,98902.44
2022-09-26T19:52:16.848Z,98896.47
2022-09-26T19:54:45.211Z,98891.97
2022-09-26T19:57:16.523Z,98893.00
2022-09-26T19:59:45.691Z,98899.16
2022-09-26T20:02:16.582Z,98896.28
2022-09-26T20:04:44.963Z,98895.28
2022-09-26T20:07:13.563Z,98893.63
2022-09-26T20:09:41.693Z,98888.31
2022-09-26T20:12:10.024Z,98888.31
2022-09-26T20:14:38.256Z,98888.31
2022-09-26T20:17:17.712Z,98896.09
2022-09-26T20:19:46.788Z,98881.53
2022-09-26T20:22:16.961Z,98872.72
2022-09-26T20:24:47.325Z,98867.41
2022-09-26T20:27:18.642Z,98861.06
2022-09-26T20:30:04.186Z,98873.16
2022-09-26T20:32:33.255Z,98867.00
2022-09-26T20:35:01.275Z,98873.81
2022-09-26T20:37:31.127Z,98868.66
2022-09-26T20:39:59.156Z,98868.66
2022-09-26T20:42:34.137Z,98857.00
2022-09-26T20:45:02.366Z,98857.84
2022-09-26T20:47:30.606Z,98851.50
2022-09-26T20:50:01.903Z,98855.81
2022-09-26T20:52:31.004Z,98852.13
2022-09-26T20:54:59.041Z,98844.13
2022-09-26T20:57:26.704Z,98854.78
2022-09-26T20:59:54.312Z,98857.25
2022-09-26T21:02:26.626Z,98855.25
2022-09-26T21:04:54.762Z,98853.41
2022-09-26T21:07:24.240Z,98853.22
2022-09-26T21:09:52.179Z,98854.03
2022-09-26T21:12:19.983Z,98846.88
2022-09-26T21:14:47.775Z,98853.00
2022-09-26T21:17:19.208Z,98850.19
2022-09-26T21:19:46.905Z,98851.00
2022-09-26T21:22:36.809Z,98843.19
2022-09-26T21:25:04.625Z,98844.88
2022-09-26T21:27:32.200Z,98843.84
2022-09-26T21:29:59.853Z,98848.34
2022-09-26T21:32:27.417Z,98850.81
2022-09-26T21:35:04.664Z,98849.59
2022-09-26T21:37:32.690Z,98851.44
2022-09-26T21:40:02.560Z,98854.94
2022-09-26T21:42:30.245Z,98844.94
2022-09-26T21:45:02.188Z,98840.63
2022-09-26T21:47:29.752Z,98843.09
2022-09-26T21:49:57.867Z,98850.06
2022-09-26T21:52:29.460Z,98841.25
2022-09-26T21:54:59.030Z,98841.25
2022-09-26T21:57:32.603Z,98842.88
2022-09-26T22:00:00.562Z,98837.56
2022-09-26T22:02:28.407Z,98830.19
2022-09-26T22:04:56.012Z,98831.03
2022-09-26T22:07:23.641Z,98832.88
2022-09-26T22:09:51.220Z,98818.72
2022-09-26T22:12:19.124Z,98821.22
2022-09-26T22:14:48.747Z,98821.22
2022-09-26T22:17:16.418Z,98820.19
2022-09-26T22:19:43.968Z,98816.72
2022-09-26T22:22:11.824Z,98810.38
2022-09-26T22:24:39.381Z,98804.03
2022-09-26T22:27:07.416Z,98808.53
2022-09-26T22:29:35.351Z,98800.34
2022-09-26T22:32:04.862Z,98795.00
2022-09-26T22:34:33.215Z,98795.00
2022-09-26T22:37:00.923Z,98787.84
2022-09-26T22:39:28.471Z,98786.00
2022-09-26T22:41:56.022Z,98792.16
2022-09-26T22:44:23.563Z,98788.50
2022-09-26T22:46:51.176Z,98781.50
2022-09-26T22:49:20.666Z,98780.50
2022-09-26T22:51:48.196Z,98776.00
2022-09-26T22:54:16.280Z,98779.50
2022-09-26T22:56:43.895Z,98772.53
2022-09-26T22:59:11.670Z,98783.19
2022-09-26T23:01:39.299Z,98787.69
2022-09-26T23:04:07.050Z,98776.19
2022-09-26T23:06:35.956Z,98773.50
2022-09-26T23:09:03.957Z,98781.69
2022-09-26T23:11:31.673Z,98781.69
2022-09-26T23:13:59.353Z,98780.06
2022-09-26T23:16:28.130Z,98775.75
2022-09-26T23:18:56.503Z,98772.06
2022-09-26T23:21:26.294Z,98774.09
2022-09-26T23:23:57.045Z,98775.09
2022-09-26T23:26:27.106Z,98779.59
2022-09-26T23:28:56.320Z,98772.00
2022-09-26T23:31:24.961Z,98774.06
2022-09-26T23:33:53.169Z,98771.38
2022-09-26T23:36:21.431Z,98770.94
2022-09-26T23:38:49.407Z,98772.31
2022-09-26T23:41:18.636Z,98777.63
2022-09-26T23:43:46.840Z,98766.38
2022-09-26T23:46:15.061Z,98771.69
2022-09-26T23:48:43.751Z,98771.06
2022-09-26T23:51:11.375Z,98771.22
2022-09-26T23:53:38.940Z,98774.56
2022-09-26T23:56:09.575Z,98776.75
2022-09-26T23:58:39.138Z,98774.28
